Time;durP1;ratioP1;P1;durP2;ratioP2;P2;SDS_P1;SDS_P2;PMS_P1;PMS_P2;Temp;Humidity;BMP_temperature;BMP_pressure;BME280_temperature;BME280_humidity;BME280_pressure;Samples;Min_cycle;Max_cycle;Signal;HPM_P1;HPM_P2
2023/04/04 00:01:34;;;;;;;4.90;3.33;;;;;;;7.90;100.00;95273.75;5072484;28;20553;-62
2023/04/04 00:04:01;;;;;;;4.80;2.63;;;;;;;7.91;100.00;95280.63;5072402;28;20053;-53
2023/04/04 00:06:28;;;;;;;3.05;2.38;;;;;;;7.95;100.00;95292.63;5072443;28;20122;-59
2023/04/04 00:08:56;;;;;;;3.75;1.90;;;;;;;7.93;100.00;95315.25;5072442;28;20561;-56
2023/04/04 00:11:23;;;;;;;2.40;1.83;;;;;;;7.94;100.00;95324.75;5072359;28;20041;-62
2023/04/04 00:13:52;;;;;;;2.08;1.67;;;;;;;7.97;100.00;95324.63;5072516;28;20499;-53
2023/04/04 00:16:19;;;;;;;2.08;1.73;;;;;;;7.99;100.00;95314.97;5072365;28;20094;-61
2023/04/04 00:18:47;;;;;;;2.00;1.58;;;;;;;8.00;100.00;95319.25;5072380;28;20045;-59
2023/04/04 00:21:14;;;;;;;1.95;1.48;;;;;;;8.07;100.00;95314.63;5072332;28;20084;-56
2023/04/04 00:23:41;;;;;;;3.85;1.50;;;;;;;8.15;100.00;95309.03;5072385;28;20053;-57
2023/04/04 00:26:08;;;;;;;3.25;1.48;;;;;;;8.24;100.00;95305.97;5072276;28;20051;-59
2023/04/04 00:28:35;;;;;;;4.55;1.52;;;;;;;8.23;100.00;95301.69;5072290;28;20406;-61
2023/04/04 00:31:04;;;;;;;2.28;1.20;;;;;;;8.24;100.00;95284.31;5074675;28;20478;-61
2023/04/04 00:33:31;;;;;;;1.45;1.10;;;;;;;8.24;100.00;95274.72;5075830;28;20056;-55
2023/04/04 00:35:58;;;;;;;1.77;1.50;;;;;;;8.25;100.00;95262.56;5075706;28;20135;-60
2023/04/04 00:38:25;;;;;;;1.35;1.17;;;;;;;8.22;100.00;95258.34;5075705;28;20048;-60
2023/04/04 00:40:52;;;;;;;1.42;1.23;;;;;;;8.24;100.00;95258.28;5075690;28;20044;-64
2023/04/04 00:43:19;;;;;;;1.80;1.50;;;;;;;8.19;100.00;95261.09;5075624;28;20135;-55
2023/04/04 00:45:46;;;;;;;2.30;2.10;;;;;;;8.09;100.00;95238.09;5075533;28;20044;-55
2023/04/04 00:48:15;;;;;;;2.55;2.20;;;;;;;8.07;100.00;95258.16;5075605;28;20075;-61
2023/04/04 00:50:42;;;;;;;4.03;1.80;;;;;;;8.00;100.00;95263.75;5075627;28;20120;-55
2023/04/04 00:53:09;;;;;;;2.58;2.17;;;;;;;7.95;100.00;95248.34;5075396;28;20483;-59
2023/04/04 00:55:38;;;;;;;3.20;2.30;;;;;;;7.94;100.00;95234.47;5075387;28;20409;-58
2023/04/04 00:58:06;;;;;;;3.25;2.22;;;;;;;7.88;100.00;95226.94;5075355;28;20051;-56
2023/04/04 01:00:34;;;;;;;3.00;2.70;;;;;;;7.94;100.00;95234.47;5075504;28;20044;-60
2023/04/04 01:03:02;;;;;;;2.88;2.03;;;;;;;7.99;100.00;95242.06;5075107;28;20136;-62
2023/04/04 01:05:31;;;;;;;2.50;2.30;;;;;;;8.01;100.00;95242.81;5075210;28;20054;-60
2023/04/04 01:07:59;;;;;;;2.60;2.35;;;;;;;8.02;100.00;95257.53;5075105;28;20084;-57
2023/04/04 01:10:26;;;;;;;4.47;2.58;;;;;;;8.05;100.00;95269.56;5075050;28;20040;-55
2023/04/04 01:12:54;;;;;;;4.30;2.83;;;;;;;8.08;100.00;95245.97;5074909;28;20059;-63
2023/04/04 01:15:21;;;;;;;3.25;2.45;;;;;;;8.08;100.00;95253.78;5075192;28;20084;-57
2023/04/04 01:17:50;;;;;;;4.90;3.20;;;;;;;8.04;100.00;95262.69;5074912;28;20045;-58
2023/04/04 01:20:20;;;;;;;4.15;3.03;;;;;;;8.02;100.00;95244.53;5074908;28;20052;-59
2023/04/04 01:22:51;;;;;;;2.70;2.45;;;;;;;8.02;100.00;95254.94;5074986;28;20048;-57
2023/04/04 01:25:20;;;;;;;2.67;2.47;;;;;;;8.05;100.00;95254.78;5074908;28;20124;-55
2023/04/04 01:27:49;;;;;;;3.15;1.90;;;;;;;8.04;100.00;95254.88;5074828;28;20047;-55
2023/04/04 01:30:17;;;;;;;5.55;1.73;;;;;;;8.04;100.00;95247.88;5074721;28;20127;-60
2023/04/04 01:32:49;;;;;;;2.83;1.58;;;;;;;8.09;100.00;95258.94;5074701;28;20084;-59
2023/04/04 01:35:26;;;;;;;2.08;1.13;;;;;;;8.11;100.00;95271.03;5074594;28;20102;-60
2023/04/04 01:38:01;;;;;;;1.38;1.27;;;;;;;8.14;100.00;95255.25;5074555;28;20095;-62
2023/04/04 01:40:34;;;;;;;3.75;1.10;;;;;;;8.20;100.00;95241.94;5074027;28;20550;-61
2023/04/04 01:43:03;;;;;;;1.15;1.05;;;;;;;8.22;100.00;95232.28;5074469;28;20055;-62
2023/04/04 01:45:31;;;;;;;1.02;1.00;;;;;;;8.22;100.00;95242.72;5074392;28;20079;-59
2023/04/04 01:47:59;;;;;;;1.05;0.98;;;;;;;8.20;100.00;95252.34;5074292;28;20490;-60
2023/04/04 01:50:26;;;;;;;2.75;1.20;;;;;;;8.22;100.00;95253.13;5074375;28;20064;-56
2023/04/04 01:52:53;;;;;;;2.97;1.85;;;;;;;8.28;100.00;95286.66;5074213;28;20135;-56
2023/04/04 01:55:20;;;;;;;4.93;1.92;;;;;;;8.25;100.00;95252.94;5074294;28;20120;-58
2023/04/04 01:57:48;;;;;;;1.75;1.60;;;;;;;8.26;100.00;95232.97;5074323;28;20148;-62
2023/04/04 02:00:16;;;;;;;1.75;1.65;;;;;;;8.28;100.00;95239.78;5074175;28;20048;-60
2023/04/04 02:02:43;;;;;;;2.05;1.88;;;;;;;8.35;100.00;95227.31;5073911;28;20417;-57
2023/04/04 02:05:11;;;;;;;3.25;2.33;;;;;;;8.28;100.00;95226.75;5074311;28;20123;-56
2023/04/04 02:07:38;;;;;;;4.05;2.78;;;;;;;8.34;100.00;95223.03;5073936;28;20051;-55
2023/04/04 02:10:06;;;;;;;3.05;2.78;;;;;;;8.38;100.00;95218.47;5073956;28;20044;-54
2023/04/04 02:12:33;;;;;;;4.10;2.92;;;;;;;8.38;100.00;95213.28;5074034;28;20044;-59
2023/04/04 02:15:00;;;;;;;2.80;2.53;;;;;;;8.43;100.00;95212.09;5073808;28;20044;-59
2023/04/04 02:17:29;;;;;;;3.85;3.38;;;;;;;8.39;100.00;95215.81;5073786;28;20482;-55
2023/04/04 02:19:56;;;;;;;3.25;2.38;;;;;;;8.40;100.00;95207.06;5073704;28;20048;-62
2023/04/04 02:22:23;;;;;;;2.85;2.55;;;;;;;8.35;100.00;95214.28;5073728;28;20070;-58
2023/04/04 02:24:52;;;;;;;3.05;2.50;;;;;;;8.34;100.00;95217.81;5073911;28;20136;-60
2023/04/04 02:27:20;;;;;;;4.72;3.22;;;;;;;8.30;100.00;95198.88;5073593;28;20049;-58
2023/04/04 02:29:47;;;;;;;4.13;3.72;;;;;;;8.33;100.00;95193.50;5073517;28;20131;-56
2023/04/04 02:32:14;;;;;;;5.65;4.45;;;;;;;8.31;100.00;95189.31;5073681;28;20048;-57
2023/04/04 02:34:43;;;;;;;4.35;3.60;;;;;;;8.31;100.00;95179.69;5073472;28;20054;-57
2023/04/04 02:37:10;;;;;;;3.90;3.40;;;;;;;8.29;100.00;95185.91;5073427;28;20098;-51
2023/04/04 02:39:37;;;;;;;4.28;3.22;;;;;;;8.30;100.00;95183.25;5073354;28;20044;-59
2023/04/04 02:42:05;;;;;;;3.70;3.40;;;;;;;8.26;100.00;95179.09;5073396;28;20084;-61
2023/04/04 02:44:33;;;;;;;3.97;2.75;;;;;;;8.27;100.00;95174.72;5073397;28;20056;-57
2023/04/04 02:47:00;;;;;;;3.05;2.85;;;;;;;8.28;100.00;95173.81;5073592;28;20197;-61
2023/04/04 02:49:28;;;;;;;6.55;3.22;;;;;;;8.31;100.00;95171.88;5073323;28;20139;-57
2023/04/04 02:51:57;;;;;;;5.05;4.00;;;;;;;8.36;100.00;95173.44;5073123;28;20044;-57
2023/04/04 02:54:24;;;;;;;4.00;3.60;;;;;;;8.39;100.00;95178.47;5072764;28;20099;-63
2023/04/04 02:56:51;;;;;;;5.38;3.90;;;;;;;8.41;100.00;95174.88;5073097;28;20127;-61
2023/04/04 02:59:18;;;;;;;4.63;3.83;;;;;;;8.41;100.00;95179.25;5073074;28;20041;-54
2023/04/04 03:01:45;;;;;;;6.38;4.15;;;;;;;8.44;100.00;95181.69;5073058;28;20436;-58
2023/04/04 03:04:12;;;;;;;4.93;4.22;;;;;;;8.42;100.00;95178.31;5072957;28;20041;-62
2023/04/04 03:06:41;;;;;;;7.38;4.28;;;;;;;8.39;100.00;95181.94;5072928;28;20094;-60
2023/04/04 03:09:10;;;;;;;4.63;4.20;;;;;;;8.36;100.00;95184.69;5073020;28;20044;-56
2023/04/04 03:11:37;;;;;;;7.70;4.50;;;;;;;8.32;100.00;95194.44;5073011;28;20135;-62
2023/04/04 03:14:04;;;;;;;5.78;4.63;;;;;;;8.30;100.00;95185.00;5072908;28;20479;-59
2023/04/04 03:16:32;;;;;;;4.47;4.03;;;;;;;8.27;100.00;95177.31;5073131;28;20439;-60
2023/04/04 03:19:01;;;;;;;4.18;3.70;;;;;;;8.27;100.00;95167.75;5073206;28;20044;-56
2023/04/04 03:21:28;;;;;;;4.82;4.32;;;;;;;8.29;100.00;95162.47;5073013;28;20051;-59
2023/04/04 03:23:55;;;;;;;3.80;3.40;;;;;;;8.33;100.00;95166.59;5072866;28;20517;-63
2023/04/04 03:26:24;;;;;;;3.65;3.35;;;;;;;8.28;100.00;95168.63;5072968;28;20483;-55
2023/04/04 03:28:51;;;;;;;3.70;3.38;;;;;;;8.30;100.00;95169.34;5072870;28;20052;-55
2023/04/04 03:31:19;;;;;;;4.78;2.83;;;;;;;8.24;100.00;95162.69;5072864;28;20076;-54
2023/04/04 03:33:46;;;;;;;3.42;3.13;;;;;;;8.28;100.00;95164.22;5072717;28;20044;-58
2023/04/04 03:36:14;;;;;;;2.60;2.40;;;;;;;8.25;100.00;95147.91;5072733;28;20498;-59
2023/04/04 03:38:41;;;;;;;3.13;2.67;;;;;;;8.30;100.00;95171.97;5072874;28;20051;-59
2023/04/04 03:41:12;;;;;;;2.70;2.35;;;;;;;8.34;100.00;95163.09;5072793;28;20094;-58
2023/04/04 03:43:41;;;;;;;3.45;2.60;;;;;;;8.37;100.00;95156.88;5072624;28;20124;-62
2023/04/04 03:46:08;;;;;;;2.80;2.60;;;;;;;8.26;100.00;95154.81;5072678;28;20044;-60
2023/04/04 03:48:35;;;;;;;2.65;2.45;;;;;;;8.32;100.00;95163.16;5072589;28;20080;-55
2023/04/04 03:51:03;;;;;;;3.10;2.75;;;;;;;8.29;100.00;95163.31;5072835;28;20076;-56
2023/04/04 03:53:30;;;;;;;3.13;2.10;;;;;;;8.37;100.00;95159.47;5072467;28;20106;-58
2023/04/04 03:55:58;;;;;;;4.50;2.30;;;;;;;8.40;100.00;95162.75;5072547;28;20055;-62
2023/04/04 03:58:27;;;;;;;3.28;2.28;;;;;;;8.44;100.00;95161.69;5072574;28;20051;-61
2023/04/04 04:00:56;;;;;;;2.58;2.13;;;;;;;8.47;100.00;95165.91;5072795;28;20405;-56
2023/04/04 04:03:24;;;;;;;2.13;1.90;;;;;;;8.41;100.00;95148.81;5072251;28;20496;-56
2023/04/04 04:05:52;;;;;;;5.82;1.58;;;;;;;8.39;100.00;95161.06;5076340;28;20346;-59
2023/04/04 04:08:19;;;;;;;3.95;1.83;;;;;;;8.36;100.00;95163.84;5076261;28;20413;-58
2023/04/04 04:10:46;;;;;;;3.38;1.73;;;;;;;8.30;100.00;95154.56;5076176;28;20049;-61
2023/04/04 04:13:14;;;;;;;2.20;1.70;;;;;;;8.36;100.00;95168.22;5076149;28;20135;-60
2023/04/04 04:15:42;;;;;;;1.73;1.63;;;;;;;8.38;100.00;95182.00;5076100;28;20083;-60
2023/04/04 04:18:11;;;;;;;2.42;1.58;;;;;;;8.42;100.00;95180.91;5076001;28;20127;-59
2023/04/04 04:20:38;;;;;;;4.45;1.38;;;;;;;8.54;100.00;95172.50;5076155;28;20048;-61
2023/04/04 04:23:05;;;;;;;2.22;1.50;;;;;;;8.45;100.00;95167.72;5076005;28;20131;-55
2023/04/04 04:25:33;;;;;;;1.50;1.27;;;;;;;8.47;100.00;95176.31;5075914;28;20052;-59
2023/04/04 04:28:00;;;;;;;1.70;1.60;;;;;;;8.52;100.00;95178.69;5075888;28;20044;-63
2023/04/04 04:30:27;;;;;;;1.50;1.40;;;;;;;8.61;99.96;95166.97;5075989;28;20130;-59
2023/04/04 04:32:55;;;;;;;2.95;1.33;;;;;;;8.58;99.90;95170.59;5075787;28;20051;-58
2023/04/04 04:35:23;;;;;;;3.50;1.67;;;;;;;8.57;99.99;95184.53;5075652;28;20056;-60
2023/04/04 04:37:51;;;;;;;1.92;1.40;;;;;;;8.54;99.43;95175.13;5075755;28;20059;-58
2023/04/04 04:40:18;;;;;;;2.20;1.67;;;;;;;8.54;99.79;95188.16;5075978;28;20103;-57
2023/04/04 04:42:46;;;;;;;3.38;1.70;;;;;;;8.58;99.62;95181.03;5075639;28;20048;-55
2023/04/04 04:45:14;;;;;;;1.92;1.70;;;;;;;8.51;100.00;95180.44;5075577;28;20379;-58
2023/04/04 04:47:41;;;;;;;1.90;1.80;;;;;;;8.54;100.00;95190.75;5075653;28;20430;-60
2023/04/04 04:50:09;;;;;;;2.67;2.42;;;;;;;8.46;100.00;95188.50;5075499;28;20405;-56
2023/04/04 04:52:39;;;;;;;2.88;2.60;;;;;;;8.37;100.00;95186.34;5075436;28;20482;-60
2023/04/04 04:55:11;;;;;;;7.63;2.97;;;;;;;8.27;100.00;95166.91;5075325;28;20557;-55
2023/04/04 04:57:39;;;;;;;6.85;3.33;;;;;;;8.18;100.00;95173.44;5075390;28;20048;-60
2023/04/04 05:00:08;;;;;;;3.97;3.58;;;;;;;8.11;100.00;95164.25;5075198;28;20044;-58
2023/04/04 05:02:35;;;;;;;5.70;4.68;;;;;;;8.09;100.00;95162.56;5074996;28;20041;-59
2023/04/04 05:05:02;;;;;;;7.75;4.95;;;;;;;8.06;100.00;95156.66;5075163;28;20044;-59
2023/04/04 05:07:30;;;;;;;7.70;5.32;;;;;;;8.06;100.00;95159.25;5075300;28;20045;-56
2023/04/04 05:10:01;;;;;;;5.22;4.70;;;;;;;8.07;100.00;95167.00;5075108;28;20102;-62
2023/04/04 05:12:28;;;;;;;4.05;3.40;;;;;;;8.09;100.00;95157.34;5075091;28;20076;-57
2023/04/04 05:14:56;;;;;;;6.35;5.25;;;;;;;8.17;100.00;95158.72;5074805;28;20058;-62
2023/04/04 05:17:25;;;;;;;7.68;6.03;;;;;;;8.14;100.00;95159.72;5074445;28;20127;-56
2023/04/04 05:19:52;;;;;;;8.27;6.07;;;;;;;8.11;100.00;95159.88;5074918;28;20045;-56
2023/04/04 05:22:19;;;;;;;8.10;6.75;;;;;;;8.08;100.00;95175.66;5074841;28;20414;-61
2023/04/04 05:24:47;;;;;;;11.63;7.65;;;;;;;8.06;100.00;95165.31;5075013;28;20105;-57
2023/04/04 05:27:20;;;;;;;11.13;8.35;;;;;;;8.03;100.00;95162.88;5074819;28;20050;-61
2023/04/04 05:29:49;;;;;;;11.27;7.93;;;;;;;8.01;100.00;95158.66;5074591;28;20053;-55
2023/04/04 05:32:17;;;;;;;12.07;8.23;;;;;;;7.98;100.00;95159.66;5074619;28;20083;-59
2023/04/04 05:34:44;;;;;;;13.02;9.85;;;;;;;7.97;100.00;95158.81;5074572;28;20406;-59
2023/04/04 05:37:12;;;;;;;12.13;8.73;;;;;;;7.97;100.00;95157.97;5074482;28;20051;-59
2023/04/04 05:39:39;;;;;;;12.40;9.82;;;;;;;7.95;100.00;95158.03;5074461;28;20052;-60
2023/04/04 05:42:07;;;;;;;11.63;8.95;;;;;;;7.94;100.00;95171.97;5074423;28;20048;-55
2023/04/04 05:44:36;;;;;;;12.32;8.55;;;;;;;7.93;100.00;95172.06;5074490;28;20506;-57
2023/04/04 05:47:04;;;;;;;12.10;8.07;;;;;;;7.93;100.00;95166.84;5074432;28;20052;-59
2023/04/04 05:49:31;;;;;;;12.90;8.48;;;;;;;7.99;100.00;95163.94;5074576;28;20110;-59
2023/04/04 05:51:58;;;;;;;11.13;8.05;;;;;;;8.04;100.00;95161.94;5074374;28;20486;-62
2023/04/04 05:54:26;;;;;;;11.88;7.03;;;;;;;8.07;100.00;95180.00;5074166;28;20048;-58
2023/04/04 05:56:54;;;;;;;18.73;10.05;;;;;;;8.04;100.00;95167.16;5074353;28;20494;-61
2023/04/04 05:59:22;;;;;;;18.60;11.10;;;;;;;8.04;100.00;95158.50;5074107;28;20041;-58
2023/04/04 06:01:50;;;;;;;22.27;11.38;;;;;;;7.94;100.00;95169.38;5074161;28;20110;-55
2023/04/04 06:04:18;;;;;;;15.52;11.93;;;;;;;7.95;100.00;95165.03;5074168;28;20044;-57
2023/04/04 06:06:48;;;;;;;16.80;11.60;;;;;;;7.98;100.00;95172.69;5074061;28;20102;-56
2023/04/04 06:09:16;;;;;;;19.75;11.70;;;;;;;7.94;100.00;95176.34;5074029;28;20044;-58
2023/04/04 06:11:47;;;;;;;17.98;11.40;;;;;;;7.92;100.00;95172.97;5073897;28;20127;-60
2023/04/04 06:14:15;;;;;;;16.55;10.95;;;;;;;7.86;100.00;95174.13;5073834;28;20055;-60
2023/04/04 06:16:42;;;;;;;27.67;11.90;;;;;;;7.88;100.00;95167.06;5073810;28;20048;-61
2023/04/04 06:19:12;;;;;;;51.47;13.43;;;;;;;7.91;100.00;95166.91;5073697;28;20071;-60
2023/04/04 06:21:39;;;;;;;37.75;14.10;;;;;;;7.89;100.00;95165.31;5073707;28;20510;-57
2023/04/04 06:24:07;;;;;;;90.63;15.02;;;;;;;7.80;100.00;95172.66;5073670;28;20413;-59
2023/04/04 06:26:35;;;;;;;46.05;14.50;;;;;;;7.80;100.00;95169.22;5073534;28;20055;-59
2023/04/04 06:29:03;;;;;;;41.13;14.57;;;;;;;7.81;100.00;95176.09;5073561;28;20041;-58
2023/04/04 06:31:30;;;;;;;32.03;14.02;;;;;;;7.85;100.00;95172.41;5073561;28;20055;-56
2023/04/04 06:34:00;;;;;;;726.20;38.25;;;;;;;7.88;100.00;95176.63;5073397;28;20048;-55
2023/04/04 06:36:29;;;;;;;498.50;24.55;;;;;;;7.84;100.00;95182.00;5073424;28;20044;-63
2023/04/04 06:38:58;;;;;;;52.50;13.35;;;;;;;7.83;100.00;95169.06;5073403;28;20040;-59
2023/04/04 06:41:26;;;;;;;20.10;12.93;;;;;;;7.88;100.00;95174.03;5073650;28;20048;-55
2023/04/04 06:43:54;;;;;;;24.70;13.73;;;;;;;7.93;100.00;95169.44;5073471;28;20083;-58
2023/04/04 06:46:22;;;;;;;31.88;13.55;;;;;;;7.96;100.00;95169.31;5073307;28;20044;-59
2023/04/04 06:48:50;;;;;;;19.15;12.68;;;;;;;7.91;100.00;95166.91;5073545;28;20060;-61
2023/04/04 06:51:18;;;;;;;17.25;11.32;;;;;;;7.93;100.00;95169.44;5073321;28;20059;-59
2023/04/04 06:53:48;;;;;;;16.17;10.55;;;;;;;7.94;100.00;95164.16;5073164;28;20123;-59
2023/04/04 06:56:15;;;;;;;21.75;11.90;;;;;;;7.89;100.00;95163.53;5073144;28;20044;-58
2023/04/04 06:58:43;;;;;;;18.67;11.73;;;;;;;7.87;100.00;95168.00;5073040;28;20118;-62
2023/04/04 07:01:11;;;;;;;15.10;10.70;;;;;;;7.88;100.00;95166.22;5073112;28;20555;-56
2023/04/04 07:03:43;;;;;;;10.55;8.85;;;;;;;7.92;100.00;95175.59;5072825;28;20522;-60
2023/04/04 07:06:13;;;;;;;11.77;9.43;;;;;;;7.87;100.00;95169.75;5072751;28;20052;-62
2023/04/04 07:08:41;;;;;;;;;;;;;;;7.92;100.00;95175.59;5073502;28;20044;-61
2023/04/04 07:11:11;;;;;;;20.83;8.43;;;;;;;7.91;100.00;95173.88;5073039;28;19920;-61
2023/04/04 07:13:38;;;;;;;14.45;8.80;;;;;;;7.95;100.00;95167.63;5072999;28;20498;-58
2023/04/04 07:16:10;;;;;;;13.38;9.52;;;;;;;7.93;100.00;95172.06;5072870;28;20044;-56
2023/04/04 07:18:48;;;;;;;17.80;11.95;;;;;;;7.91;100.00;95176.47;5072898;28;20123;-52
2023/04/04 07:21:16;;;;;;;15.88;11.40;;;;;;;7.93;100.00;95172.91;5073021;28;20063;-61
2023/04/04 07:23:51;;;;;;;16.00;11.02;;;;;;;8.02;100.00;95179.41;5072863;28;20102;-56
2023/04/04 07:26:26;;;;;;;15.20;10.35;;;;;;;8.09;100.00;95179.94;5072383;28;20048;-63
2023/04/04 07:28:54;;;;;;;18.27;11.63;;;;;;;8.04;100.00;95176.75;5073093;28;20462;-61
2023/04/04 07:31:22;;;;;;;14.93;11.02;;;;;;;8.05;100.00;95187.09;5072846;28;20044;-55
2023/04/04 07:33:49;;;;;;;22.60;12.60;;;;;;;8.09;100.00;95185.16;5072784;28;20083;-58
2023/04/04 07:36:18;;;;;;;18.25;11.77;;;;;;;8.13;100.00;95172.84;5072775;28;20053;-58
2023/04/04 07:38:47;;;;;;;16.35;12.05;;;;;;;8.07;100.00;95176.59;5072375;28;20482;-59
2023/04/04 07:41:18;;;;;;;16.55;11.40;;;;;;;8.02;100.00;95174.22;5077008;28;20040;-56
2023/04/04 07:43:50;;;;;;;16.42;11.57;;;;;;;8.01;100.00;95182.09;5076583;28;20049;-59
2023/04/04 07:46:23;;;;;;;17.85;11.95;;;;;;;8.03;100.00;95178.50;5076702;28;20047;-56
2023/04/04 07:48:52;;;;;;;15.35;11.18;;;;;;;8.02;100.00;95170.75;5076749;28;20066;-64
2023/04/04 07:51:27;;;;;;;18.02;11.10;;;;;;;8.02;100.00;95173.34;5076531;28;20106;-56
2023/04/04 07:53:59;;;;;;;12.15;8.18;;;;;;;8.09;100.00;95182.53;5076629;28;20051;-60
2023/04/04 07:56:27;;;;;;;16.38;10.00;;;;;;;8.04;100.00;95180.16;5076121;28;20049;-58
2023/04/04 07:58:56;;;;;;;12.38;9.13;;;;;;;8.05;100.00;95168.84;5076432;28;20051;-58
2023/04/04 08:13:25;;;;;;;8.85;7.60;;;;;;;8.90;100.00;95173.25;5070392;28;20368;-60
2023/04/04 08:15:52;;;;;;;12.02;7.75;;;;;;;8.80;100.00;95167.72;5070326;28;20170;-58
2023/04/04 08:18:20;;;;;;;11.60;6.95;;;;;;;8.70;100.00;95164.72;5070214;28;20065;-57
2023/04/04 08:20:47;;;;;;;8.85;6.97;;;;;;;8.55;100.00;95161.16;5070060;28;20076;-57
2023/04/04 08:23:14;;;;;;;6.97;6.35;;;;;;;8.49;100.00;95171.03;5070053;28;20114;-58
2023/04/04 08:25:42;;;;;;;6.35;5.10;;;;;;;8.55;100.00;95168.16;5070194;28;20087;-58
2023/04/04 08:28:10;;;;;;;7.90;5.05;;;;;;;8.55;100.00;95170.75;5069949;28;20053;-53
2023/04/04 08:30:38;;;;;;;4.93;4.18;;;;;;;8.57;100.00;95172.34;5069984;28;20052;-51
2023/04/04 08:33:05;;;;;;;7.38;4.78;;;;;;;8.63;100.00;95178.16;5070006;28;20045;-56
2023/04/04 08:35:32;;;;;;;6.90;5.05;;;;;;;8.59;100.00;95175.72;5069761;28;20136;-62
2023/04/04 08:38:01;;;;;;;5.57;4.75;;;;;;;8.58;100.00;95178.41;5069775;28;20504;-53
2023/04/04 08:40:29;;;;;;;7.47;5.43;;;;;;;8.47;100.00;95181.53;5069977;28;20045;-56
2023/04/04 08:42:57;;;;;;;6.05;5.45;;;;;;;8.47;100.00;95182.41;5069867;28;20049;-59
2023/04/04 08:45:26;;;;;;;8.55;6.28;;;;;;;8.43;100.00;95185.22;5069697;28;20059;-57
2023/04/04 08:47:58;;;;;;;8.73;6.28;;;;;;;8.50;100.00;95198.78;5069751;28;20044;-52
2023/04/04 08:50:27;;;;;;;8.85;7.95;;;;;;;8.44;100.00;95194.72;5069611;28;20091;-59
2023/04/04 08:52:54;;;;;;;13.63;9.27;;;;;;;8.42;100.00;95201.75;5069471;28;20087;-58
2023/04/04 08:55:22;;;;;;;12.43;10.00;;;;;;;8.42;100.00;95197.41;5069475;28;20053;-58
2023/04/04 08:57:49;;;;;;;25.58;9.50;;;;;;;8.31;100.00;95207.53;5069423;28;20051;-55
2023/04/04 09:00:20;;;;;;;89.10;13.18;;;;;;;8.32;100.00;95206.59;5069247;28;20053;-58
2023/04/04 09:02:56;;;;;;;21.90;10.63;;;;;;;8.26;100.00;95201.69;5069153;28;20055;-54
2023/04/04 09:05:25;;;;;;;40.25;12.45;;;;;;;8.23;100.00;95205.31;5069142;28;20052;-57
2023/04/04 09:07:54;;;;;;;26.50;13.70;;;;;;;8.24;100.00;95207.00;5069100;28;20048;-57
2023/04/04 09:10:22;;;;;;;21.10;12.98;;;;;;;8.29;100.00;95206.75;5069021;28;20114;-60
2023/04/04 09:12:51;;;;;;;15.95;12.35;;;;;;;8.37;100.00;95204.59;5064024;28;20080;-57
2023/04/04 09:15:18;;;;;;;19.58;13.68;;;;;;;8.46;100.00;95211.97;5055814;28;20049;-57
2023/04/04 09:17:45;;;;;;;62.80;15.13;;;;;;;8.38;100.00;95213.28;5055852;28;20052;-57
2023/04/04 09:20:35;;;;;;;380.35;24.20;;;;;;;8.31;100.00;95212.75;5055761;28;20141;-57
2023/04/04 09:23:06;;;;;;;902.28;57.33;;;;;;;8.25;100.00;95211.28;5055849;28;20052;-58
2023/04/04 09:25:33;;;;;;;470.55;24.60;;;;;;;8.29;100.00;95211.97;5055592;28;20049;-55
2023/04/04 09:28:03;;;;;;;439.48;24.98;;;;;;;8.31;100.00;95216.19;5055627;28;20052;-57
2023/04/04 09:30:31;;;;;;;1169.50;45.65;;;;;;;8.35;100.00;95206.47;5055630;28;20082;-55
2023/04/04 09:33:01;;;;;;;531.60;36.00;;;;;;;8.42;100.00;95212.19;5055518;28;20084;-56
2023/04/04 09:35:28;;;;;;;426.73;23.73;;;;;;;8.41;100.00;95211.38;5055408;28;20049;-56
2023/04/04 09:37:57;;;;;;;31.90;14.60;;;;;;;8.42;100.00;95220.84;5055371;28;20102;-55
2023/04/04 09:40:27;;;;;;;59.97;16.65;;;;;;;8.45;100.00;95219.84;5055481;28;20055;-58
2023/04/04 09:42:55;;;;;;;21.60;15.98;;;;;;;8.47;100.00;95218.03;5055236;28;20056;-57
2023/04/04 09:45:25;;;;;;;23.38;18.08;;;;;;;8.53;100.00;95222.94;5055433;28;20509;-59
2023/04/04 09:47:54;;;;;;;22.75;18.30;;;;;;;8.60;100.00;95223.47;5055332;28;20051;-54
2023/04/04 09:50:27;;;;;;;22.95;16.92;;;;;;;8.68;100.00;95221.34;5055245;28;20057;-56
2023/04/04 09:53:00;;;;;;;21.27;16.13;;;;;;;8.87;100.00;95228.19;5055117;28;20486;-55
2023/04/04 09:55:35;;;;;;;21.75;15.45;;;;;;;9.00;100.00;95222.34;5055069;28;20055;-58
2023/04/04 09:58:12;;;;;;;20.60;16.25;;;;;;;9.25;100.00;95223.63;5055131;28;20052;-61
2023/04/04 10:00:43;;;;;;;15.52;11.98;;;;;;;9.45;100.00;95215.56;5054895;28;20132;-54
2023/04/04 10:03:14;;;;;;;16.27;13.13;;;;;;;9.69;100.00;95222.13;5054814;28;20056;-57
2023/04/04 10:05:41;;;;;;;15.45;10.23;;;;;;;9.68;100.00;95229.13;5054947;28;20135;-56
2023/04/04 10:08:17;;;;;;;15.48;10.80;;;;;;;9.71;99.81;95223.72;5054787;28;20103;-55
2023/04/04 10:10:50;;;;;;;12.25;10.18;;;;;;;9.63;99.63;95225.91;5054990;28;20045;-57
2023/04/04 10:13:24;;;;;;;12.15;10.05;;;;;;;9.56;99.35;95222.81;5054564;28;20099;-54
2023/04/04 10:15:53;;;;;;;12.38;10.30;;;;;;;9.40;100.00;95214.97;5054713;28;20053;-56
2023/04/04 10:18:23;;;;;;;13.60;11.20;;;;;;;9.44;100.00;95224.31;5054533;28;20409;-58
2023/04/04 10:20:50;;;;;;;13.95;11.10;;;;;;;9.47;100.00;95224.16;5054656;28;20053;-59
2023/04/04 10:23:20;;;;;;;13.85;11.88;;;;;;;9.56;100.00;95225.41;5054441;28;20053;-54
2023/04/04 10:25:48;;;;;;;13.63;11.82;;;;;;;9.61;100.00;95219.94;5053490;28;20052;-59
2023/04/04 10:28:15;;;;;;;17.42;12.00;;;;;;;9.75;100.00;95210.50;5054610;28;20052;-53
2023/04/04 10:30:45;;;;;;;11.68;9.88;;;;;;;9.90;98.76;95214.84;5054462;28;20045;-58
2023/04/04 10:33:21;;;;;;;15.43;9.43;;;;;;;9.91;97.06;95211.34;5054353;28;20052;-59
2023/04/04 10:35:54;;;;;;;10.10;7.75;;;;;;;9.93;95.77;95206.03;5054353;28;20056;-55
2023/04/04 10:38:28;;;;;;;5.93;5.07;;;;;;;10.11;95.79;95206.72;5054275;28;20068;-56
2023/04/04 10:40:59;;;;;;;7.20;6.20;;;;;;;10.16;95.16;95206.47;5054279;28;20053;-57
2023/04/04 10:43:32;;;;;;;8.15;6.13;;;;;;;10.24;95.83;95207.69;5054087;28;20049;-58
2023/04/04 10:46:08;;;;;;;12.68;8.05;;;;;;;10.39;92.77;95199.06;5054071;28;20068;-60
2023/04/04 10:48:36;;;;;;;7.43;6.70;;;;;;;10.60;92.06;95197.00;5054097;28;20443;-59
2023/04/04 10:51:05;;;;;;;9.48;8.00;;;;;;;10.84;93.91;95193.84;5054120;28;20553;-57
2023/04/04 10:53:36;;;;;;;10.07;7.45;;;;;;;10.85;90.13;95198.13;5053976;28;20049;-57
2023/04/04 10:56:03;;;;;;;12.48;7.53;;;;;;;10.81;87.48;95194.00;5053955;28;20091;-59
2023/04/04 10:58:30;;;;;;;8.18;7.10;;;;;;;10.92;87.74;95198.56;5053938;28;20053;-63
2023/04/04 11:00:59;;;;;;;10.65;7.47;;;;;;;11.21;90.09;95203.81;5053703;28;20490;-57
2023/04/04 11:03:26;;;;;;;11.60;6.63;;;;;;;11.37;82.47;95194.06;5053799;28;20114;-58
2023/04/04 11:06:00;;;;;;;9.40;6.50;;;;;;;11.55;83.99;95201.69;5053761;28;20056;-56
2023/04/04 11:08:29;;;;;;;8.75;5.80;;;;;;;11.55;79.42;95196.47;5053655;28;20041;-55
2023/04/04 11:10:57;;;;;;;11.57;6.20;;;;;;;11.50;83.83;95195.94;5053551;28;20155;-55
2023/04/04 11:13:28;;;;;;;11.75;6.88;;;;;;;11.41;82.16;95192.06;5053606;28;20045;-61
2023/04/04 11:15:56;;;;;;;11.10;6.30;;;;;;;11.48;79.82;95195.16;5053627;28;20128;-51
2023/04/04 11:18:44;;;;;;;8.85;6.22;;;;;;;11.36;80.32;95184.53;5053555;28;20045;-56
2023/04/04 11:21:17;;;;;;;11.15;6.50;;;;;;;11.47;83.17;95183.03;5053682;28;20128;-59
2023/04/04 11:24:14;;;;;;;13.18;7.05;;;;;;;11.71;84.33;95164.88;5053333;28;20057;-61
2023/04/04 11:26:44;;;;;;;7.93;5.53;;;;;;;11.85;79.55;95163.16;5049569;28;20487;-53
2023/04/04 11:29:21;;;;;;;7.07;4.50;;;;;;;11.86;79.54;95157.81;5053593;28;20049;-56
2023/04/04 11:31:50;;;;;;;9.10;6.20;;;;;;;12.10;80.10;95159.78;5053223;28;20053;-59
2023/04/04 11:34:31;;;;;;;7.53;5.75;;;;;;;11.98;77.48;95158.78;5053175;28;20049;-58
2023/04/04 11:37:00;;;;;;;8.65;6.03;;;;;;;11.87;78.93;95162.09;5053132;28;20040;-63
2023/04/04 11:39:29;;;;;;;10.70;7.53;;;;;;;11.83;81.93;95157.19;5053215;28;20516;-58
2023/04/04 11:42:03;;;;;;;9.00;6.78;;;;;;;11.60;78.50;95155.13;5053140;28;20049;-58
2023/04/04 11:44:31;;;;;;;9.77;5.88;;;;;;;11.55;79.24;95159.78;5053261;28;20052;-52
2023/04/04 11:47:09;;;;;;;10.45;6.53;;;;;;;11.52;79.11;95164.38;5053221;28;20049;-58